Time;durP1;ratioP1;P1;durP2;ratioP2;P2;SDS_P1;SDS_P2;PMS_P1;PMS_P2;Temp;Humidity;BMP_temperature;BMP_pressure;BME280_temperature;BME280_humidity;BME280_pressure;Samples;Min_cycle;Max_cycle;Signal;HPM_P1;HPM_P2
2022/09/19 00:01:18;;;;;;;14.32;1.65;;;;;;;15.31;64.51;101973.78;5057221;28;20043;-39
2022/09/19 00:03:46;;;;;;;10.25;1.45;;;;;;;15.57;63.70;101969.72;5039555;28;20044;-41
2022/09/19 00:06:14;;;;;;;14.18;1.90;;;;;;;15.58;63.69;101967.97;5042861;28;20024;-40
2022/09/19 00:08:42;;;;;;;10.88;1.50;;;;;;;15.44;64.04;101975.69;5038072;28;20059;-40
2022/09/19 00:11:09;;;;;;;12.10;1.60;;;;;;;15.22;64.81;101978.94;5047522;28;20028;-41
2022/09/19 00:13:36;;;;;;;12.88;1.90;;;;;;;15.02;63.90;101976.94;5050030;28;20033;-39
2022/09/19 00:16:02;;;;;;;12.18;1.60;;;;;;;14.95;60.64;101974.22;5042199;28;20044;-41
2022/09/19 00:18:28;;;;;;;12.50;1.70;;;;;;;15.30;59.43;101974.66;5043686;28;20094;-40
2022/09/19 00:20:54;;;;;;;11.90;1.27;;;;;;;14.97;58.10;101975.13;5042132;28;20127;-43
2022/09/19 00:26:10;;;;;;;14.23;1.40;;;;;;;15.33;57.43;101972.06;5037680;28;20771;-40
2022/09/19 00:28:37;;;;;;;10.57;1.40;;;;;;;15.29;57.39;101976.41;5050806;28;20035;-41
2022/09/19 00:31:03;;;;;;;8.55;1.30;;;;;;;15.26;57.29;101978.97;5049071;28;20128;-39
2022/09/19 00:33:31;;;;;;;9.90;1.20;;;;;;;15.14;57.62;101975.31;5045688;28;20131;-39
2022/09/19 00:35:58;;;;;;;10.02;1.30;;;;;;;15.12;58.04;101975.34;5043373;28;20132;-41
2022/09/19 00:38:25;;;;;;;9.48;1.48;;;;;;;15.06;58.31;101977.88;5046894;28;20045;-40
2022/09/19 00:40:51;;;;;;;8.18;1.60;;;;;;;14.86;59.18;101979.34;5047428;28;20036;-39
2022/09/19 00:43:18;;;;;;;7.57;1.17;;;;;;;14.75;60.04;101984.47;5076620;28;20016;-41
2022/09/19 00:45:44;;;;;;;10.35;1.48;;;;;;;14.64;61.58;101982.56;5039047;28;20045;-40
2022/09/19 00:48:13;;;;;;;8.02;1.42;;;;;;;14.67;61.35;101988.72;5046654;28;20035;-40
2022/09/19 00:50:39;;;;;;;10.13;1.40;;;;;;;14.71;60.77;101989.63;5040199;28;20139;-40
2022/09/19 00:53:11;;;;;;;13.57;1.70;;;;;;;14.74;60.19;101989.69;5044635;28;20037;-39
2022/09/19 00:55:39;;;;;;;8.35;1.75;;;;;;;14.99;59.93;101983.91;5037830;28;20466;-38
2022/09/19 00:58:10;;;;;;;10.38;1.60;;;;;;;15.09;60.61;101984.91;5036188;28;20101;-39
2022/09/19 01:00:36;;;;;;;11.02;1.75;;;;;;;15.13;61.92;101990.19;5047530;28;20028;-40
2022/09/19 01:03:07;;;;;;;10.70;1.85;;;;;;;15.23;61.60;101989.47;5042100;28;20051;-39
2022/09/19 01:06:00;;;;;;;12.30;1.67;;;;;;;15.16;62.37;101987.63;5043227;28;20756;-39
2022/09/19 01:08:45;;;;;;;15.68;1.98;;;;;;;15.25;60.87;101986.84;5040354;28;20044;-40
2022/09/19 01:11:32;;;;;;;10.05;1.60;;;;;;;15.56;61.24;101994.25;5042416;28;20505;-40
2022/09/19 01:14:14;;;;;;;9.95;1.67;;;;;;;15.61;60.32;101997.81;5071394;28;20435;-38
2022/09/19 01:16:48;;;;;;;11.27;1.70;;;;;;;15.58;59.37;101986.38;5046533;28;20040;-39
2022/09/19 01:19:45;;;;;;;17.13;1.85;;;;;;;15.75;57.80;101993.56;5049126;28;20089;-39
2022/09/19 01:22:40;;;;;;;8.38;1.30;;;;;;;15.85;56.45;101986.66;5039891;28;20040;-40
2022/09/19 01:25:17;;;;;;;12.77;1.90;;;;;;;15.93;56.48;101992.84;5050170;28;20556;-39
2022/09/19 01:28:10;;;;;;;11.00;1.33;;;;;;;15.89;57.32;101993.72;5040839;28;20515;-39
2022/09/19 01:30:43;;;;;;;10.00;1.60;;;;;;;15.68;57.80;101996.13;5049048;28;20044;-39
2022/09/19 01:33:17;;;;;;;7.28;1.42;;;;;;;15.46;56.62;101996.72;5044423;28;20036;-39
2022/09/19 01:35:48;;;;;;;11.57;1.58;;;;;;;15.26;58.23;101997.38;5044462;28;20497;-40
2022/09/19 01:38:23;;;;;;;8.75;1.48;;;;;;;15.45;56.53;102001.09;5041513;28;20613;-39
2022/09/19 01:40:50;;;;;;;10.07;1.50;;;;;;;15.39;57.00;101999.28;5051250;28;20032;-39
2022/09/19 01:43:17;;;;;;;7.60;1.50;;;;;;;15.20;56.17;101999.94;5053377;28;20668;-39
2022/09/19 01:45:44;;;;;;;5.28;1.30;;;;;;;15.23;57.04;102004.34;5045186;28;20257;-40
2022/09/19 01:48:45;;;;;;;9.25;1.45;;;;;;;15.10;57.95;102005.94;5045286;28;20024;-40
2022/09/19 01:51:25;;;;;;;8.38;1.20;;;;;;;14.95;58.06;101998.72;5047542;28;20120;-40
2022/09/19 01:53:56;;;;;;;6.65;1.20;;;;;;;14.82;58.61;102002.03;5052087;28;20024;-41
2022/09/19 01:56:36;;;;;;;11.70;1.35;;;;;;;14.67;59.38;102004.47;5037040;28;21200;-40
2022/09/19 01:59:21;;;;;;;6.18;1.30;;;;;;;14.45;60.67;102007.63;5050819;28;20036;-40
2022/09/19 02:02:22;;;;;;;6.88;1.20;;;;;;;14.32;60.58;102009.16;5050899;28;20375;-39
2022/09/19 02:04:58;;;;;;;10.73;1.40;;;;;;;14.30;60.88;102013.47;5046115;28;20025;-40
2022/09/19 02:07:44;;;;;;;8.18;1.20;;;;;;;14.16;61.22;102014.97;5050627;28;20032;-43
2022/09/19 02:10:15;;;;;;;6.25;1.10;;;;;;;14.04;62.04;102018.28;5047294;28;20106;-40
2022/09/19 02:12:42;;;;;;;7.25;1.35;;;;;;;14.00;61.93;102013.84;5046638;28;20040;-39
2022/09/19 02:15:11;;;;;;;6.63;1.20;;;;;;;13.91;62.72;102015.41;5043622;28;20455;-39
2022/09/19 02:17:44;;;;;;;7.93;1.30;;;;;;;13.86;62.82;102012.72;5053611;28;20032;-41
2022/09/19 02:20:20;;;;;;;3.78;0.88;;;;;;;13.87;63.01;102014.47;5042573;28;20395;-40
2022/09/19 02:22:51;;;;;;;7.47;1.30;;;;;;;13.80;63.36;102023.09;5052574;28;20935;-39
2022/09/19 02:25:23;;;;;;;7.90;1.20;;;;;;;13.75;63.32;102014.25;5047601;28;20081;-40
2022/09/19 02:27:52;;;;;;;9.27;1.20;;;;;;;13.68;63.56;102012.38;5047468;28;20082;-38
2022/09/19 02:30:20;;;;;;;7.07;1.33;;;;;;;13.63;63.92;102021.88;5037843;28;20036;-39
2022/09/19 02:32:47;;;;;;;5.28;1.30;;;;;;;13.65;64.13;102023.69;5045832;28;20076;-39
2022/09/19 02:35:15;;;;;;;5.13;1.10;;;;;;;13.58;64.74;102027.06;5042672;28;20056;-40
2022/09/19 02:37:54;;;;;;;5.63;1.13;;;;;;;13.55;65.21;102021.72;5043492;28;20125;-41
2022/09/19 02:40:28;;;;;;;5.95;1.10;;;;;;;13.54;65.31;102029.59;5040143;28;20392;-39
2022/09/19 02:43:17;;;;;;;6.45;1.20;;;;;;;13.54;65.85;102030.44;5049596;28;20057;-39
2022/09/19 02:45:53;;;;;;;7.35;1.20;;;;;;;13.50;66.16;102023.38;5045180;28;20458;-40
2022/09/19 02:48:34;;;;;;;6.57;1.05;;;;;;;13.49;66.17;102021.63;5044272;28;20145;-40
2022/09/19 02:51:09;;;;;;;8.85;1.20;;;;;;;13.50;65.92;102019.88;5046093;28;20089;-39
2022/09/19 02:53:42;;;;;;;6.80;1.40;;;;;;;13.48;65.94;102022.47;5050593;28;20053;-39
2022/09/19 02:56:13;;;;;;;4.35;1.17;;;;;;;13.42;66.16;102022.34;5043192;28;20141;-41
2022/09/19 02:58:46;;;;;;;7.13;1.27;;;;;;;13.37;66.04;102022.25;5046664;28;20025;-40
2022/09/19 03:01:17;;;;;;;8.27;1.30;;;;;;;13.32;65.85;102018.66;5052510;28;20059;-39
2022/09/19 03:06:52;;;;;;;8.35;1.23;;;;;;;13.23;66.64;102035.94;5046135;28;20097;-40
2022/09/19 03:09:23;;;;;;;4.50;1.05;;;;;;;13.20;67.03;102023.66;5041593;28;20659;-41
2022/09/19 03:12:18;;;;;;;6.07;1.25;;;;;;;13.23;66.81;102030.69;5045426;28;20063;-39
2022/09/19 03:14:45;;;;;;;6.68;1.20;;;;;;;13.21;66.68;102024.53;5045617;28;20052;-40
2022/09/19 03:17:16;;;;;;;6.53;1.17;;;;;;;13.16;66.76;102023.56;5045752;28;20036;-39
2022/09/19 03:19:45;;;;;;;5.68;1.08;;;;;;;13.16;66.99;102019.22;5044818;28;20228;-41
2022/09/19 03:22:11;;;;;;;4.55;1.30;;;;;;;13.12;67.28;102021.69;5044956;28;21023;-40
2022/09/19 03:24:37;;;;;;;6.30;1.30;;;;;;;13.17;67.17;102022.72;5044825;28;20024;-39
2022/09/19 03:27:04;;;;;;;7.15;1.27;;;;;;;13.05;67.60;102025.94;5037921;28;20495;-39
2022/09/19 03:29:30;;;;;;;7.05;1.27;;;;;;;13.03;67.12;102022.38;5047970;28;20032;-40
2022/09/19 03:31:55;;;;;;;7.32;1.40;;;;;;;13.00;67.13;102027.53;5045518;28;20040;-45
2022/09/19 03:34:21;;;;;;;5.50;1.20;;;;;;;12.94;68.04;102025.66;5042229;28;20036;-40
2022/09/19 03:36:47;;;;;;;5.75;1.23;;;;;;;13.02;67.86;102028.47;5050622;28;20028;-40
2022/09/19 03:39:13;;;;;;;5.65;1.42;;;;;;;13.00;68.01;102027.53;5040155;28;20037;-40
2022/09/19 03:41:38;;;;;;;6.88;1.27;;;;;;;12.99;67.48;102025.78;5046133;28;20581;-41
2022/09/19 03:44:04;;;;;;;5.88;1.30;;;;;;;13.00;67.16;102033.66;5040174;28;20036;-45
2022/09/19 03:46:31;;;;;;;4.65;1.10;;;;;;;12.94;67.54;102030.03;5050750;28;20104;-39
2022/09/19 03:48:58;;;;;;;6.78;1.45;;;;;;;12.96;67.65;102041.41;5053212;28;20028;-40
2022/09/19 03:51:24;;;;;;;4.03;1.20;;;;;;;12.96;67.74;102042.31;5048498;28;20128;-44
2022/09/19 03:53:49;;;;;;;9.02;1.33;;;;;;;12.96;67.87;102044.91;5044475;28;20035;-40
2022/09/19 03:56:16;;;;;;;5.53;1.27;;;;;;;12.97;67.65;102048.44;5037480;28;20052;-40
2022/09/19 03:58:42;;;;;;;5.75;1.23;;;;;;;12.96;67.99;102044.91;5045879;28;20497;-39
2022/09/19 04:01:08;;;;;;;6.82;1.30;;;;;;;12.94;67.83;102044.00;5043890;28;20060;-39
2022/09/19 04:03:34;;;;;;;8.65;1.30;;;;;;;12.96;67.68;102044.03;5029352;28;20044;-40
2022/09/19 04:06:01;;;;;;;8.65;1.30;;;;;;;12.94;67.84;102050.97;5039967;28;20037;-40
2022/09/19 04:08:27;;;;;;;6.50;1.33;;;;;;;13.12;67.20;102053.09;5046464;28;20040;-41
2022/09/19 04:10:52;;;;;;;6.95;1.20;;;;;;;13.18;66.56;102048.91;5050326;28;20070;-40
2022/09/19 04:13:20;;;;;;;8.23;1.38;;;;;;;13.21;66.74;102046.38;5077588;28;20032;-40
2022/09/19 04:15:46;;;;;;;4.68;1.48;;;;;;;13.24;66.40;102046.41;5042060;28;20082;-40
2022/09/19 04:18:11;;;;;;;10.98;1.20;;;;;;;13.11;67.36;102047.00;5038921;28;20029;-40
2022/09/19 04:20:38;;;;;;;8.95;1.25;;;;;;;13.24;66.56;102045.53;5044680;28;20040;-40
2022/09/19 04:23:03;;;;;;;5.45;1.20;;;;;;;13.32;66.19;102046.59;5048499;28;20033;-40
2022/09/19 04:25:35;;;;;;;6.22;1.13;;;;;;;13.36;65.81;102051.91;5044655;28;20368;-40
2022/09/19 04:28:03;;;;;;;7.40;1.20;;;;;;;13.36;65.72;102046.69;5038243;28;20044;-40
2022/09/19 04:30:32;;;;;;;6.30;1.20;;;;;;;13.37;65.89;102058.94;5046766;28;20042;-40
2022/09/19 04:33:00;;;;;;;8.60;1.10;;;;;;;13.39;65.87;102057.22;5044711;28;20045;-41
2022/09/19 04:35:26;;;;;;;6.03;1.30;;;;;;;13.39;65.50;102064.22;5046403;28;20035;-40
2022/09/19 04:37:51;;;;;;;7.28;1.30;;;;;;;13.43;65.57;102067.75;5050140;28;20028;-41
2022/09/19 04:40:18;;;;;;;9.23;1.25;;;;;;;13.44;65.10;102067.78;5042577;28;20117;-39
2022/09/19 04:42:45;;;;;;;7.70;1.20;;;;;;;13.38;65.15;102070.28;5047600;28;20126;-43
2022/09/19 04:45:11;;;;;;;7.55;1.20;;;;;;;13.32;65.28;102073.66;5042328;28;20037;-39
2022/09/19 04:47:38;;;;;;;4.95;1.10;;;;;;;13.27;65.20;102071.81;5047178;28;20092;-40
2022/09/19 04:50:07;;;;;;;5.63;1.17;;;;;;;13.24;65.23;102074.34;5043064;28;20058;-39
2022/09/19 04:52:34;;;;;;;5.18;1.00;;;;;;;13.24;65.47;102071.72;5047545;28;20119;-39
2022/09/19 04:55:00;;;;;;;4.20;0.95;;;;;;;13.18;65.63;102075.09;5045783;28;20052;-39
2022/09/19 04:57:26;;;;;;;7.57;1.15;;;;;;;13.16;65.85;102073.31;5039978;28;20553;-39
2022/09/19 04:59:54;;;;;;;5.25;1.48;;;;;;;13.18;65.88;102069.84;5048501;28;20082;-39
2022/09/19 05:02:20;;;;;;;6.15;1.25;;;;;;;13.16;66.02;102075.94;5046021;28;20037;-40
2022/09/19 05:04:46;;;;;;;6.32;1.20;;;;;;;12.99;67.00;102080.78;5051212;28;20079;-40
2022/09/19 05:07:13;;;;;;;6.60;1.20;;;;;;;13.10;67.05;102076.66;5047944;28;20833;-39
2022/09/19 05:09:38;;;;;;;7.38;1.58;;;;;;;13.34;66.37;102078.94;5043071;28;20079;-40
2022/09/19 05:12:04;;;;;;;10.77;1.30;;;;;;;13.46;66.48;102089.69;5046439;28;20064;-39
2022/09/19 05:14:30;;;;;;;6.90;1.33;;;;;;;13.59;66.45;102083.84;5048035;28;20048;-41
2022/09/19 05:16:56;;;;;;;6.55;1.00;;;;;;;13.64;66.85;102073.44;5054041;28;20039;-40
2022/09/19 05:19:24;;;;;;;8.68;1.55;;;;;;;13.84;66.46;102074.72;5052864;28;20029;-41
2022/09/19 05:21:50;;;;;;;7.05;1.30;;;;;;;13.95;65.45;102080.16;5053565;28;20043;-39
2022/09/19 05:24:16;;;;;;;8.63;1.30;;;;;;;14.06;64.67;102078.63;5048720;28;20039;-40
2022/09/19 05:26:41;;;;;;;12.93;1.50;;;;;;;14.28;64.82;102080.75;5049116;28;20083;-39
2022/09/19 05:29:07;;;;;;;8.55;1.20;;;;;;;14.38;64.12;102079.22;5049333;28;20039;-40
2022/09/19 05:31:35;;;;;;;6.47;1.23;;;;;;;14.48;64.12;102089.00;5050806;28;20033;-40
2022/09/19 05:34:01;;;;;;;9.02;1.40;;;;;;;14.57;63.61;102091.81;5041695;28;20124;-43
2022/09/19 05:36:27;;;;;;;5.20;1.38;;;;;;;14.70;63.50;102085.00;5046320;28;20554;-40
2022/09/19 05:38:53;;;;;;;3.60;1.00;;;;;;;14.76;63.50;102092.97;5045642;28;20140;-41
2022/09/19 05:41:18;;;;;;;4.95;1.30;;;;;;;14.86;63.13;102089.63;5049220;28;20108;-38
2022/09/19 05:43:44;;;;;;;7.25;1.40;;;;;;;14.92;63.10;102090.59;5044810;28;20032;-41
2022/09/19 05:46:10;;;;;;;8.45;1.48;;;;;;;14.97;62.32;102088.94;5041509;28;20099;-41
2022/09/19 05:48:37;;;;;;;8.25;1.23;;;;;;;14.88;63.21;102093.16;5050071;28;20068;-39
2022/09/19 05:51:02;;;;;;;8.18;1.30;;;;;;;14.97;61.71;102088.03;5044372;28;20041;-39
2022/09/19 05:56:11;;;;;;;7.68;1.45;;;;;;;15.41;60.02;102096.53;5040943;28;20470;-39
2022/09/19 05:58:37;;;;;;;8.60;1.40;;;;;;;15.53;58.58;102098.47;5053472;28;20128;-39
2022/09/19 06:01:04;;;;;;;11.00;1.20;;;;;;;15.69;57.68;102096.03;5045262;28;20021;-40
2022/09/19 06:03:31;;;;;;;7.53;1.20;;;;;;;15.94;57.78;102096.31;5047246;28;20456;-39
2022/09/19 06:05:56;;;;;;;7.32;1.35;;;;;;;16.04;56.77;102099.06;5045669;28;20032;-40
2022/09/19 06:08:22;;;;;;;7.95;1.42;;;;;;;16.08;57.31;102105.25;5042465;28;20036;-40
2022/09/19 06:10:49;;;;;;;6.68;1.33;;;;;;;16.14;56.65;102103.56;5043996;28;20035;-41
2022/09/19 06:13:22;;;;;;;8.68;1.23;;;;;;;15.95;56.52;102111.25;5046046;28;20491;-39
2022/09/19 06:15:48;;;;;;;7.17;1.10;;;;;;;15.96;57.13;102103.38;5042510;28;20047;-40
2022/09/19 06:18:13;;;;;;;8.50;1.63;;;;;;;15.95;57.37;102117.38;5043054;28;20287;-40
2022/09/19 06:20:40;;;;;;;8.55;1.27;;;;;;;16.13;56.74;102114.94;5046013;28;20084;-40
2022/09/19 06:23:07;;;;;;;7.18;1.35;;;;;;;16.25;56.32;102119.44;5048580;28;20048;-41
2022/09/19 06:25:34;;;;;;;8.90;1.40;;;;;;;16.21;56.79;102117.66;5045137;28;20080;-40
2022/09/19 06:28:03;;;;;;;5.10;1.35;;;;;;;16.14;57.03;102124.59;5038871;28;20605;-40
2022/09/19 06:30:28;;;;;;;5.97;1.20;;;;;;;16.01;57.24;102129.72;5046602;28;20596;-40
2022/09/19 06:32:54;;;;;;;7.93;1.35;;;;;;;16.10;57.61;102129.84;5044609;28;20041;-40
2022/09/19 06:35:21;;;;;;;8.98;1.60;;;;;;;16.14;57.27;102134.25;5046288;28;20047;-40
2022/09/19 06:37:47;;;;;;;6.47;1.35;;;;;;;16.10;57.36;102132.47;5051545;28;20090;-40
2022/09/19 06:40:14;;;;;;;6.03;1.10;;;;;;;16.83;57.68;102134.03;5044400;28;20037;-40
2022/09/19 06:42:40;;;;;;;6.10;1.30;;;;;;;18.01;54.61;102133.81;5049515;28;20033;-40
2022/09/19 06:45:06;;;;;;;6.90;1.40;;;;;;;19.03;50.11;102125.97;5043431;28;21155;-40
2022/09/19 06:47:32;;;;;;;9.45;1.33;;;;;;;20.02;48.18;102125.66;5046715;28;20082;-39
2022/09/19 06:50:00;;;;;;;12.98;1.40;;;;;;;20.73;45.00;102132.28;5044723;28;20033;-41
2022/09/19 06:52:26;;;;;;;6.65;1.27;;;;;;;21.64;44.29;102131.34;5049410;28;20036;-39
2022/09/19 06:54:51;;;;;;;8.15;1.38;;;;;;;21.77;44.14;102138.25;5053532;28;20034;-40
2022/09/19 06:57:16;;;;;;;8.82;1.30;;;;;;;21.89;43.09;102142.53;5042123;28;20071;-39
2022/09/19 06:59:41;;;;;;;10.50;1.58;;;;;;;21.91;41.85;102141.59;5048986;28;20039;-39
2022/09/19 07:02:08;;;;;;;9.57;1.52;;;;;;;21.75;42.47;102151.53;5047310;28;20033;-41
2022/09/19 07:04:34;;;;;;;10.15;1.45;;;;;;;22.08;41.61;102144.06;5044338;28;20024;-41
2022/09/19 07:07:00;;;;;;;7.97;1.25;;;;;;;21.29;43.46;102145.88;5048211;28;20031;-40
2022/09/19 07:09:26;;;;;;;6.18;1.40;;;;;;;22.32;43.51;102145.50;5020726;28;20567;-39
2022/09/19 07:11:53;;;;;;;9.70;1.40;;;;;;;21.67;42.24;102142.78;5039668;28;20033;-40
2022/09/19 07:14:18;;;;;;;8.45;1.30;;;;;;;20.93;43.65;102151.50;5021132;28;20057;-41
2022/09/19 07:16:44;;;;;;;8.90;1.60;;;;;;;20.25;45.33;102152.88;5024833;28;20052;-40
2022/09/19 07:19:09;;;;;;;10.27;1.50;;;;;;;19.60;46.23;102153.19;5026984;28;20104;-41
2022/09/19 07:21:34;;;;;;;8.30;1.63;;;;;;;18.91;49.15;102155.06;5022739;28;20049;-41
2022/09/19 07:24:01;;;;;;;7.90;1.30;;;;;;;18.56;49.45;102163.88;5022223;28;20655;-39
2022/09/19 07:26:27;;;;;;;7.20;1.10;;;;;;;18.29;50.81;102166.47;5018904;28;20046;-40
2022/09/19 07:28:52;;;;;;;7.18;1.40;;;;;;;18.34;50.58;102164.69;5029649;28;20060;-40
2022/09/19 07:31:18;;;;;;;8.88;1.70;;;;;;;17.96;51.57;102175.16;5026950;28;20499;-41
2022/09/19 07:33:43;;;;;;;9.90;1.52;;;;;;;17.77;51.92;102165.38;5023989;28;20041;-40
2022/09/19 07:36:11;;;;;;;8.40;1.35;;;;;;;17.89;51.87;102168.06;5017794;28;20067;-39
2022/09/19 07:38:37;;;;;;;7.18;1.20;;;;;;;17.93;51.52;102169.84;5022057;28;20041;-40
2022/09/19 07:41:02;;;;;;;9.18;1.58;;;;;;;17.93;50.73;102174.25;5023805;28;20032;-42
2022/09/19 07:43:28;;;;;;;7.13;1.13;;;;;;;17.84;50.51;102172.47;5023213;28;20037;-42
2022/09/19 07:45:54;;;;;;;8.45;1.50;;;;;;;17.80;51.71;102179.50;5018794;28;20045;-42
2022/09/19 07:48:20;;;;;;;7.57;1.20;;;;;;;18.22;51.24;102175.22;5022257;28;20036;-39
2022/09/19 07:50:47;;;;;;;9.98;1.73;;;;;;;18.35;51.06;102184.94;5022283;28;20167;-42
2022/09/19 07:53:23;;;;;;;8.52;1.40;;;;;;;18.17;51.27;102184.91;5024837;28;20025;-39
2022/09/19 07:55:51;;;;;;;9.30;1.30;;;;;;;17.96;52.42;102183.06;5022133;28;20124;-40
2022/09/19 07:58:18;;;;;;;9.63;1.67;;;;;;;17.86;52.12;102181.28;5016777;28;20060;-41
2022/09/19 08:00:45;;;;;;;8.27;1.27;;;;;;;17.88;50.74;102183.88;5019347;28;20483;-40
2022/09/19 08:03:13;;;;;;;8.15;1.30;;;;;;;18.00;51.17;102186.56;5025073;28;20060;-39
2022/09/19 08:05:40;;;;;;;7.80;1.45;;;;;;;18.00;49.47;102183.94;5023334;28;20566;-39
2022/09/19 08:08:09;;;;;;;9.38;1.25;;;;;;;18.14;50.80;102192.78;5010246;28;20025;-40
2022/09/19 08:10:35;;;;;;;8.25;1.13;;;;;;;18.41;49.92;102192.00;5023226;28;20055;-39
2022/09/19 08:13:02;;;;;;;9.00;1.33;;;;;;;18.43;48.85;102198.16;5025754;28;20064;-42
2022/09/19 08:15:28;;;;;;;9.10;1.08;;;;;;;18.38;48.35;102197.25;5021295;28;20037;-41
2022/09/19 08:17:58;;;;;;;8.02;1.40;;;;;;;18.48;48.35;102199.91;5024506;28;20052;-41
2022/09/19 08:20:29;;;;;;;4.88;1.02;;;;;;;18.97;47.88;102198.22;5019460;28;20052;-40
2022/09/19 08:22:56;;;;;;;6.82;1.20;;;;;;;18.56;47.97;102215.81;5032593;28;20021;-40
2022/09/19 08:25:23;;;;;;;10.40;1.25;;;;;;;18.59;49.36;102219.38;5020120;28;20025;-41
2022/09/19 08:27:50;;;;;;;5.30;1.30;;;;;;;18.37;47.29;102221.91;5024124;28;20045;-40
2022/09/19 08:30:17;;;;;;;8.18;1.15;;;;;;;18.68;45.95;102225.50;5019845;28;20570;-42
2022/09/19 08:32:47;;;;;;;8.25;1.40;;;;;;;18.59;46.23;102216.72;5018015;28;20583;-39
2022/09/19 08:35:14;;;;;;;7.60;1.35;;;;;;;18.55;45.86;102228.13;5021336;28;20684;-41
2022/09/19 08:37:39;;;;;;;7.53;1.45;;;;;;;19.19;46.16;102214.97;5029703;28;20076;-40
2022/09/19 08:40:18;;;;;;;6.13;1.20;;;;;;;19.42;46.33;102225.53;5013691;28;20068;-40
2022/09/19 08:42:47;;;;;;;5.20;1.10;;;;;;;19.28;45.64;102217.59;5026264;28;20063;-39
2022/09/19 08:45:18;;;;;;;6.78;1.20;;;;;;;18.85;46.58;102227.28;5020617;28;21067;-39
2022/09/19 08:47:46;;;;;;;7.50;1.00;;;;;;;18.79;45.96;102226.41;5017327;28;20083;-39
2022/09/19 08:50:20;;;;;;;5.03;1.20;;;;;;;18.72;45.34;102235.22;5013320;28;20025;-40
2022/09/19 08:52:48;;;;;;;;;;;;;;;18.84;45.98;102230.84;5024893;28;20037;-42
2022/09/19 08:55:17;;;;;;;7.60;1.10;;;;;;;19.00;46.44;102224.69;5025511;28;20015;-39
2022/09/19 11:46:21;;;;;;;7.10;1.23;;;;;;;18.89;45.59;102271.38;4968202;28;20427;-34
2022/09/19 11:49:04;;;;;;;4.68;1.20;;;;;;;19.49;44.91;102263.44;4960708;28;20090;-35
2022/09/19 11:51:49;;;;;;;7.22;1.13;;;;;;;19.46;45.27;102261.69;4958056;28;20174;-32
2022/09/19 11:54:44;;;;;;;8.25;1.20;;;;;;;19.64;43.88;102263.44;4963048;28;20350;-32
2022/09/19 11:57:30;;;;;;;6.40;1.17;;;;;;;19.76;49.27;102256.34;4955745;28;20038;-33
2022/09/19 12:00:13;;;;;;;12.05;1.55;;;;;;;20.11;48.55;102258.88;4961454;28;20046;-42
2022/09/19 12:03:07;;;;;;;5.47;1.20;;;;;;;20.27;47.20;102259.69;4962250;28;20035;-39
2022/09/19 12:05:56;;;;;;;6.75;1.20;;;;;;;19.48;49.66;102269.63;4958923;28;20046;-42
2022/09/19 12:08:30;;;;;;;9.95;1.52;;;;;;;19.77;49.79;102270.44;4952580;28;20533;-43
2022/09/19 12:11:08;;;;;;;;;;;;;;;19.67;51.14;102274.00;4965665;28;20046;-43
2022/09/19 12:13:47;;;;;;;5.53;1.20;;;;;;;19.09;54.35;102270.50;4961155;28;19918;-43
2022/09/19 12:16:25;;;;;;;8.70;1.40;;;;;;;18.97;53.63;102274.88;4963217;28;20043;-43
2022/09/19 12:18:58;;;;;;;5.60;1.20;;;;;;;18.77;50.07;102279.28;4964226;28;20489;-43
2022/09/19 12:21:33;;;;;;;7.60;1.10;;;;;;;18.24;52.79;102289.59;4958526;28;20105;-43
2022/09/19 12:26:54;;;;;;;6.13;1.25;;;;;;;18.57;53.28;102287.13;4963999;28;20118;-43
2022/09/19 12:29:39;;;;;;;5.30;1.48;;;;;;;18.43;54.66;102287.94;4957433;28;20065;-44
2022/09/19 12:32:42;;;;;;;5.30;1.13;;;;;;;18.52;53.00;102280.94;4953267;28;20070;-41
2022/09/19 12:35:34;;;;;;;4.45;1.10;;;;;;;18.82;52.04;102276.63;4960801;28;20039;-42
2022/09/19 12:38:31;;;;;;;5.00;1.15;;;;;;;19.26;51.48;102266.97;4955903;28;20985;-41
2022/09/19 12:41:17;;;;;;;5.97;0.98;;;;;;;20.23;49.83;102272.06;4954847;28;20038;-41
2022/09/19 12:44:11;;;;;;;3.72;0.90;;;;;;;19.91;49.46;102271.31;4961231;28;20724;-40
2022/09/19 12:46:54;;;;;;;7.88;1.45;;;;;;;19.52;52.99;102280.19;4958036;28;20405;-40
2022/09/19 12:49:54;;;;;;;6.10;1.10;;;;;;;18.33;59.09;102296.69;4957191;28;20220;-42
2022/09/19 12:52:35;;;;;;;4.82;1.27;;;;;;;17.90;60.44;102292.97;4950282;28;20049;-42
2022/09/19 12:55:16;;;;;;;9.13;1.25;;;;;;;17.59;63.28;102289.22;4961418;28;20685;-42
2022/09/19 12:58:16;;;;;;;7.45;1.10;;;;;;;17.97;62.53;102284.22;4943468;28;20287;-42
2022/09/19 13:00:45;;;;;;;5.80;0.95;;;;;;;17.79;62.78;102287.63;4951005;28;20110;-46
2022/09/19 13:03:23;;;;;;;3.83;0.93;;;;;;;18.03;62.25;102282.50;4944943;28;20046;-41
2022/09/19 13:05:59;;;;;;;7.80;1.08;;;;;;;18.21;61.14;102281.69;4947790;28;20402;-42
2022/09/19 13:08:37;;;;;;;7.80;1.05;;;;;;;17.85;61.32;102287.66;4944772;28;20055;-42
2022/09/19 13:11:16;;;;;;;3.17;0.82;;;;;;;18.01;60.74;102286.88;4948869;28;20022;-42
2022/09/19 13:13:56;;;;;;;6.82;1.13;;;;;;;17.82;58.04;102279.72;4950984;28;20437;-42
2022/09/19 13:16:29;;;;;;;4.70;0.90;;;;;;;17.89;57.96;102276.25;4953978;28;20701;-42
2022/09/19 13:24:56;;;;;;;3.50;1.00;;;;;;;19.42;54.98;102284.59;4941368;28;20050;-43
2022/09/19 13:27:24;;;;;;;4.22;0.70;;;;;;;19.48;54.21;102283.72;4947372;28;20074;-43
2022/09/19 13:29:53;;;;;;;10.48;1.58;;;;;;;19.08;57.09;102297.81;4945671;28;20138;-43
2022/09/19 13:32:53;;;;;;;4.07;1.00;;;;;;;18.91;58.35;102300.41;4940065;28;23741;-41
2022/09/19 13:35:22;;;;;;;4.85;1.20;;;;;;;18.47;61.24;102301.16;4942063;28;20041;-42
2022/09/19 13:37:52;;;;;;;5.18;1.17;;;;;;;18.39;61.37;102308.16;4945391;28;20031;-42
2022/09/19 13:40:39;;;;;;;3.38;0.88;;;;;;;17.94;63.72;102294.72;4939602;28;20047;-42
2022/09/19 13:43:16;;;;;;;4.07;0.90;;;;;;;17.70;64.62;102292.84;4947042;28;20114;-42
2022/09/19 13:45:54;;;;;;;5.82;1.15;;;;;;;17.81;65.05;102297.31;4943857;28;20050;-44
2022/09/19 13:48:35;;;;;;;5.03;1.00;;;;;;;17.91;65.05;102300.91;4946433;28;20027;-42
2022/09/19 13:51:19;;;;;;;5.45;1.08;;;;;;;18.11;64.17;102293.94;4940532;28;20485;-42
2022/09/19 13:54:06;;;;;;;5.70;0.82;;;;;;;18.02;64.13;102293.03;4952084;28;20022;-42
2022/09/19 13:56:35;;;;;;;6.45;1.10;;;;;;;18.02;63.60;102286.00;4943575;28;20117;-43
2022/09/19 13:59:17;;;;;;;6.60;1.02;;;;;;;17.80;61.95;102295.56;4946273;28;20770;-42
2022/09/19 14:01:57;;;;;;;4.90;1.10;;;;;;;18.07;60.66;102286.00;4944097;28;20035;-42
2022/09/19 14:07:19;;;;;;;6.25;0.90;;;;;;;17.94;58.22;102292.97;4941578;28;20134;-43
2022/09/19 14:09:50;;;;;;;3.80;0.85;;;;;;;18.01;57.09;102285.97;4937941;28;20050;-41
2022/09/19 14:12:49;;;;;;;7.28;1.10;;;;;;;18.44;57.90;102287.06;4941711;28;20458;-42
2022/09/19 14:15:40;;;;;;;5.00;1.00;;;;;;;18.11;58.61;102291.31;4937293;28;20385;-42
2022/09/19 14:18:25;;;;;;;5.93;1.17;;;;;;;18.01;57.08;102284.22;4958886;28;20502;-41
2022/09/19 14:20:59;;;;;;;5.05;0.80;;;;;;;18.52;57.71;102288.84;4938642;28;20049;-41
2022/09/19 14:23:55;;;;;;;6.55;1.13;;;;;;;18.70;57.45;102288.06;4941624;28;20058;-42
2022/09/19 14:26:50;;;;;;;5.85;1.10;;;;;;;18.81;56.90;102283.66;4940858;28;20117;-42
2022/09/19 14:29:43;;;;;;;8.70;1.30;;;;;;;18.52;56.88;102287.97;4946355;28;20031;-41
2022/09/19 14:32:28;;;;;;;8.27;1.25;;;;;;;18.28;56.61;102287.88;4946353;28;20049;-42
2022/09/19 14:35:46;;;;;;;8.18;1.13;;;;;;;18.46;54.57;102287.94;4948160;28;20030;-42
2022/09/19 14:38:31;;;;;;;4.80;1.00;;;;;;;18.23;54.49;102293.16;4897356;29;20040;-42
2022/09/19 14:41:10;;;;;;;4.30;1.08;;;;;;;18.36;54.25;102287.03;4951021;28;20703;-41
2022/09/19 14:43:48;;;;;;;5.78;1.00;;;;;;;17.83;55.18;102281.50;4954821;28;20104;-42
2022/09/19 14:46:38;;;;;;;5.38;1.00;;;;;;;18.14;53.71;102290.44;4940521;28;20862;-42
2022/09/19 14:49:22;;;;;;;8.23;1.02;;;;;;;18.39;53.59;102279.13;4945713;28;20474;-42
2022/09/19 14:51:56;;;;;;;;;;;;;;;18.33;52.63;102280.84;4946409;28;20042;-41
2022/09/19 14:54:31;;;;;;;6.03;0.90;;;;;;;17.99;52.41;102278.06;4940789;28;19929;-42
2022/09/19 14:57:02;;;;;;;3.75;1.05;;;;;;;18.00;54.68;102276.28;4944479;28;20074;-42